createdAt,value
2023-05-06T00:00:25.052Z,11.80
2023-05-06T00:02:52.088Z,11.70
2023-05-06T00:05:18.934Z,11.60
2023-05-06T00:07:48.731Z,11.50
2023-05-06T00:10:16.434Z,11.50
2023-05-06T00:12:43.361Z,11.50
2023-05-06T00:15:11.058Z,11.40
2023-05-06T00:17:38.226Z,11.40
2023-05-06T00:20:06.169Z,11.40
2023-05-06T00:22:33.954Z,11.40
2023-05-06T00:25:00.918Z,11.30
2023-05-06T00:27:27.808Z,11.30
2023-05-06T00:29:54.591Z,11.30
2023-05-06T00:32:21.543Z,11.30
2023-05-06T00:34:48.279Z,11.30
2023-05-06T00:37:15.383Z,11.30
2023-05-06T00:39:42.645Z,11.40
2023-05-06T00:42:09.426Z,11.40
2023-05-06T00:44:36.420Z,11.30
2023-05-06T00:47:04.640Z,11.20
2023-05-06T00:49:31.937Z,11.20
2023-05-06T00:52:00.513Z,11.10
2023-05-06T00:54:27.878Z,11.00
2023-05-06T00:56:55.029Z,11.00
2023-05-06T00:59:22.858Z,11.00
2023-05-06T01:01:51.967Z,10.90
2023-05-06T01:04:19.037Z,10.90
2023-05-06T01:06:54.430Z,10.90
2023-05-06T01:09:26.209Z,10.90
2023-05-06T01:12:07.220Z,10.80
2023-05-06T01:14:53.174Z,10.80
2023-05-06T01:17:26.880Z,10.80
2023-05-06T01:19:57.112Z,10.80
2023-05-06T01:22:27.004Z,10.70
2023-05-06T01:24:53.806Z,10.70
2023-05-06T01:27:20.760Z,10.70
2023-05-06T01:29:48.556Z,10.70
2023-05-06T01:32:53.606Z,10.70
2023-05-06T01:35:53.970Z,10.70
2023-05-06T01:38:33.262Z,10.70
2023-05-06T01:41:02.141Z,10.80
2023-05-06T01:43:34.840Z,10.70
2023-05-06T01:46:02.934Z,10.60
2023-05-06T01:48:32.486Z,10.60
2023-05-06T01:50:59.374Z,10.70
2023-05-06T01:53:26.121Z,10.60
2023-05-06T01:55:53.087Z,10.60
2023-05-06T01:58:19.852Z,10.60
2023-05-06T02:00:47.093Z,10.60
2023-05-06T02:03:14.345Z,10.60
2023-05-06T02:05:41.276Z,10.60
2023-05-06T02:08:08.299Z,10.70
2023-05-06T02:10:35.128Z,10.50
2023-05-06T02:13:02.447Z,10.50
2023-05-06T02:15:29.457Z,10.60
2023-05-06T02:17:57.210Z,10.60
2023-05-06T02:20:24.173Z,10.70
2023-05-06T02:22:51.192Z,10.70
2023-05-06T02:25:18.129Z,10.60
2023-05-06T02:27:45.107Z,10.60
2023-05-06T02:30:12.762Z,10.70
2023-05-06T02:32:39.732Z,10.70
2023-05-06T02:35:07.398Z,10.60
2023-05-06T02:37:34.621Z,10.60
2023-05-06T02:40:01.564Z,10.70
2023-05-06T02:42:28.341Z,10.60
2023-05-06T02:44:55.285Z,10.60
2023-05-06T02:47:22.125Z,10.60
2023-05-06T02:49:50.020Z,10.60
2023-05-06T02:52:18.320Z,10.60
2023-05-06T02:54:45.029Z,10.60
2023-05-06T02:57:11.770Z,10.60
2023-05-06T02:59:38.818Z,10.60
2023-05-06T03:02:06.008Z,10.60
2023-05-06T03:04:32.856Z,10.60
2023-05-06T03:07:00.019Z,10.60
2023-05-06T03:09:27.253Z,10.60
2023-05-06T03:11:54.245Z,10.60
2023-05-06T03:14:21.367Z,10.60
2023-05-06T03:16:48.398Z,10.50
2023-05-06T03:19:15.353Z,10.60
2023-05-06T03:21:42.158Z,10.60
2023-05-06T03:24:09.063Z,10.50
2023-05-06T03:26:35.993Z,10.40
2023-05-06T03:29:03.154Z,10.40
2023-05-06T03:31:30.100Z,10.40
2023-05-06T03:33:57.057Z,10.60
2023-05-06T03:36:25.648Z,10.70
2023-05-06T03:38:52.628Z,10.70
2023-05-06T03:41:19.673Z,10.70
2023-05-06T03:43:46.603Z,10.70
2023-05-06T03:46:13.470Z,10.70
2023-05-06T03:48:41.314Z,10.70
2023-05-06T03:51:08.370Z,10.80
2023-05-06T03:53:35.428Z,10.90
2023-05-06T03:56:02.418Z,10.90
2023-05-06T03:58:29.180Z,11.00
2023-05-06T04:00:56.167Z,11.00
2023-05-06T04:03:23.185Z,10.90
2023-05-06T04:05:50.866Z,10.90
2023-05-06T04:08:17.892Z,10.90
2023-05-06T04:10:46.448Z,10.80
2023-05-06T04:13:13.230Z,10.80
2023-05-06T04:15:41.573Z,10.80
2023-05-06T04:18:08.639Z,10.80
2023-05-06T04:20:35.786Z,10.90
2023-05-06T04:23:02.950Z,10.90
2023-05-06T04:25:30.025Z,11.00
2023-05-06T04:27:59.396Z,11.10
2023-05-06T04:30:27.187Z,11.10
2023-05-06T04:32:54.419Z,11.20
2023-05-06T04:35:21.765Z,11.10
2023-05-06T04:37:48.947Z,11.00
2023-05-06T04:40:16.077Z,11.00
2023-05-06T04:42:42.862Z,11.00
2023-05-06T04:45:14.788Z,11.10
2023-05-06T04:47:41.748Z,11.10
2023-05-06T04:50:09.556Z,11.10
2023-05-06T04:52:37.540Z,11.10
2023-05-06T04:55:04.826Z,11.00
2023-05-06T04:57:32.319Z,11.20
2023-05-06T04:59:59.091Z,11.00
2023-05-06T05:02:26.343Z,11.20
2023-05-06T05:04:53.106Z,11.20
2023-05-06T05:07:20.218Z,11.40
2023-05-06T05:09:47.328Z,11.40
2023-05-06T05:12:14.104Z,11.50
2023-05-06T05:14:40.886Z,11.50
2023-05-06T05:17:08.170Z,11.60
2023-05-06T05:19:35.932Z,11.60
2023-05-06T05:22:02.687Z,11.60
2023-05-06T05:24:29.637Z,11.40
2023-05-06T05:26:56.441Z,11.30
2023-05-06T05:29:23.255Z,11.30
2023-05-06T05:31:50.448Z,11.20
2023-05-06T05:34:17.348Z,11.30
2023-05-06T05:36:44.152Z,11.40
2023-05-06T05:39:11.672Z,11.30
2023-05-06T05:41:38.481Z,11.50
2023-05-06T05:44:05.255Z,11.60
2023-05-06T05:46:32.404Z,11.70
2023-05-06T05:48:59.353Z,11.50
2023-05-06T05:51:26.142Z,11.50
2023-05-06T05:53:53.478Z,11.40
2023-05-06T05:56:21.087Z,11.80
2023-05-06T05:58:48.106Z,12.00
2023-05-06T06:01:15.190Z,12.30
2023-05-06T06:03:42.592Z,12.20
2023-05-06T06:06:09.850Z,12.40
2023-05-06T06:08:36.724Z,12.40
2023-05-06T06:11:04.721Z,12.50
2023-05-06T06:13:32.094Z,12.70
2023-05-06T06:15:59.547Z,12.60
2023-05-06T06:18:26.521Z,12.70
2023-05-06T06:20:53.690Z,12.90
2023-05-06T06:23:21.122Z,12.60
2023-05-06T06:25:48.312Z,12.50
2023-05-06T06:28:15.281Z,12.40
2023-05-06T06:30:42.159Z,12.60
2023-05-06T06:33:09.142Z,12.50
2023-05-06T06:35:36.319Z,12.60
2023-05-06T06:38:03.452Z,12.30
2023-05-06T06:40:30.679Z,12.50
2023-05-06T06:42:57.465Z,12.80
2023-05-06T06:45:24.211Z,13.00
2023-05-06T06:47:51.210Z,13.30
2023-05-06T06:50:18.505Z,14.00
2023-05-06T06:52:45.875Z,14.60
2023-05-06T06:55:15.006Z,15.10
2023-05-06T06:57:44.394Z,15.30
2023-05-06T07:00:12.003Z,18.60
2023-05-06T07:02:39.046Z,19.20
2023-05-06T07:05:06.203Z,17.50
2023-05-06T07:07:33.359Z,18.40
2023-05-06T07:10:00.367Z,19.10
2023-05-06T07:12:27.225Z,19.60
2023-05-06T07:14:54.065Z,18.10
2023-05-06T07:17:21.271Z,18.20
2023-05-06T07:19:48.262Z,18.40
2023-05-06T07:22:15.865Z,17.80
2023-05-06T07:24:43.290Z,16.50
2023-05-06T07:27:10.571Z,15.70
2023-05-06T07:29:37.763Z,16.30
2023-05-06T07:32:05.053Z,15.60
2023-05-06T07:34:34.105Z,15.30
2023-05-06T07:37:01.488Z,15.20
2023-05-06T07:39:28.667Z,15.70
2023-05-06T07:41:55.680Z,15.80
2023-05-06T07:44:22.771Z,15.50
2023-05-06T07:46:49.841Z,15.20
2023-05-06T07:49:16.936Z,15.20
2023-05-06T07:51:44.148Z,16.00
2023-05-06T07:54:11.591Z,18.90
2023-05-06T07:56:38.604Z,20.40
2023-05-06T07:59:06.061Z,20.50
2023-05-06T08:01:33.047Z,20.20
2023-05-06T08:04:00.591Z,19.10
2023-05-06T08:06:27.503Z,16.50
2023-05-06T08:08:54.431Z,16.10
2023-05-06T08:11:21.297Z,16.40
2023-05-06T08:13:48.076Z,16.20
2023-05-06T08:16:15.545Z,15.70
2023-05-06T08:18:42.399Z,15.50
2023-05-06T08:21:09.623Z,15.50
2023-05-06T08:23:36.599Z,15.20
2023-05-06T08:26:03.621Z,14.90
2023-05-06T08:28:30.496Z,15.00
2023-05-06T08:30:57.518Z,15.10
2023-05-06T08:33:24.334Z,15.10
2023-05-06T08:35:51.592Z,15.20
2023-05-06T08:38:18.826Z,15.20
2023-05-06T08:40:45.967Z,15.10
2023-05-06T08:43:17.003Z,15.10
2023-05-06T08:45:44.146Z,15.30
2023-05-06T08:48:11.150Z,15.50
2023-05-06T08:50:43.191Z,15.70
2023-05-06T08:53:14.170Z,15.90
2023-05-06T08:55:42.522Z,16.20
2023-05-06T08:58:11.735Z,16.30
2023-05-06T09:00:39.268Z,16.30
2023-05-06T09:03:06.758Z,16.10
2023-05-06T09:05:33.673Z,16.10
2023-05-06T09:08:00.903Z,16.50
2023-05-06T09:10:32.708Z,16.60
2023-05-06T09:12:59.734Z,16.90
2023-05-06T09:15:27.197Z,16.90
2023-05-06T09:17:55.722Z,16.50
2023-05-06T09:20:22.792Z,16.60
2023-05-06T09:22:49.668Z,16.90
2023-05-06T09:25:16.512Z,17.10
2023-05-06T09:27:43.930Z,17.20
2023-05-06T09:30:12.553Z,17.60
2023-05-06T09:32:40.597Z,17.00
2023-05-06T09:35:09.445Z,16.40
2023-05-06T09:37:36.982Z,16.30
2023-05-06T09:40:04.001Z,16.20
2023-05-06T09:42:31.448Z,16.80
2023-05-06T09:45:01.892Z,16.60
2023-05-06T09:47:33.749Z,17.10
2023-05-06T09:50:01.963Z,17.50
2023-05-06T09:52:30.089Z,17.50
2023-05-06T09:54:57.535Z,17.50
2023-05-06T09:57:24.747Z,17.40
2023-05-06T09:59:54.897Z,17.10
2023-05-06T10:02:24.004Z,17.10
2023-05-06T10:04:53.072Z,16.70
2023-05-06T10:07:26.209Z,16.80
2023-05-06T10:09:53.991Z,16.60
2023-05-06T10:12:21.097Z,17.70
2023-05-06T10:14:48.216Z,18.50
2023-05-06T10:17:16.136Z,18.90
2023-05-06T10:19:47.924Z,19.20
2023-05-06T10:22:39.324Z,20.00
2023-05-06T10:25:29.848Z,19.60
2023-05-06T10:27:57.120Z,19.60
2023-05-06T10:30:24.919Z,18.70
2023-05-06T10:32:56.628Z,18.90
2023-05-06T10:35:42.479Z,18.90
2023-05-06T10:38:36.169Z,20.30
2023-05-06T10:41:04.018Z,20.30
2023-05-06T10:43:35.398Z,20.50
2023-05-06T10:46:09.390Z,20.70
2023-05-06T10:49:00.588Z,19.90
2023-05-06T10:51:28.777Z,19.70
2023-05-06T10:54:09.133Z,20.40
2023-05-06T10:56:51.221Z,20.10
2023-05-06T10:59:23.734Z,20.40
2023-05-06T11:02:06.104Z,20.70
2023-05-06T11:04:33.318Z,19.20
2023-05-06T11:07:13.025Z,19.50
2023-05-06T11:10:05.218Z,19.70
2023-05-06T11:12:47.660Z,19.30
2023-05-06T11:15:38.126Z,19.30
2023-05-06T11:18:31.105Z,19.10
2023-05-06T11:21:01.026Z,19.30
2023-05-06T11:23:54.931Z,19.00
2023-05-06T11:26:21.776Z,19.10
2023-05-06T11:28:51.225Z,18.90
2023-05-06T11:31:19.321Z,18.40
2023-05-06T11:33:51.241Z,18.40
2023-05-06T11:36:19.756Z,18.60
2023-05-06T11:38:49.852Z,18.60
2023-05-06T11:41:18.260Z,18.50
2023-05-06T11:43:52.925Z,18.80
2023-05-06T11:46:20.884Z,19.20
2023-05-06T11:48:48.015Z,19.30
2023-05-06T11:51:15.281Z,18.80
2023-05-06T11:53:44.189Z,18.90
2023-05-06T11:56:11.888Z,18.50
2023-05-06T11:58:39.046Z,18.80
2023-05-06T12:01:05.892Z,18.50
2023-05-06T12:03:33.913Z,18.90
2023-05-06T12:06:01.568Z,19.30
2023-05-06T12:08:33.882Z,19.10
2023-05-06T12:11:06.991Z,19.20
2023-05-06T12:13:36.663Z,19.50
2023-05-06T12:16:05.436Z,19.60
2023-05-06T12:18:33.167Z,19.60
2023-05-06T12:21:07.396Z,19.90
2023-05-06T12:23:34.720Z,19.50
2023-05-06T12:26:04.053Z,19.10
2023-05-06T12:28:33.044Z,18.70
2023-05-06T12:31:01.000Z,18.50
2023-05-06T12:33:27.931Z,18.70
2023-05-06T12:36:07.554Z,18.80
2023-05-06T12:38:34.425Z,18.60
2023-05-06T12:41:01.628Z,18.70
2023-05-06T12:43:33.457Z,18.90
2023-05-06T12:46:07.727Z,19.00
2023-05-06T12:48:35.314Z,19.00
2023-05-06T12:51:20.868Z,18.90
2023-05-06T12:53:48.088Z,19.10
2023-05-06T12:56:15.069Z,19.20
2023-05-06T12:58:41.969Z,19.20
2023-05-06T13:01:08.991Z,19.00
2023-05-06T13:03:38.477Z,18.90
2023-05-06T13:06:05.815Z,18.90
2023-05-06T13:08:32.767Z,18.90
2023-05-06T13:11:01.587Z,19.00
2023-05-06T13:13:28.621Z,19.30
2023-05-06T13:15:56.619Z,19.20
2023-05-06T13:18:23.491Z,19.20
2023-05-06T13:20:52.101Z,19.20
2023-05-06T13:23:19.726Z,19.40
2023-05-06T13:26:02.898Z,19.40
2023-05-06T13:28:32.260Z,19.60
2023-05-06T13:30:59.474Z,19.50
2023-05-06T13:33:26.279Z,19.30
2023-05-06T13:35:53.306Z,19.00
2023-05-06T13:38:20.440Z,19.20
2023-05-06T13:40:51.563Z,19.40
2023-05-06T13:43:19.424Z,19.50
2023-05-06T13:45:46.224Z,19.50
2023-05-06T13:48:13.819Z,19.60
2023-05-06T13:50:48.088Z,19.80
2023-05-06T13:53:15.536Z,19.60
2023-05-06T13:55:43.346Z,19.40
2023-05-06T13:58:11.032Z,19.60
2023-05-06T14:00:37.916Z,19.60
2023-05-06T14:03:04.979Z,19.60
2023-05-06T14:05:32.908Z,19.70
2023-05-06T14:07:59.775Z,19.40
2023-05-06T14:10:26.669Z,19.30
2023-05-06T14:12:53.655Z,19.60
2023-05-06T14:15:20.544Z,19.90
2023-05-06T14:17:47.379Z,20.00
2023-05-06T14:20:14.436Z,19.80
2023-05-06T14:22:44.588Z,20.00
2023-05-06T14:25:11.828Z,19.90
2023-05-06T14:27:39.173Z,19.90
2023-05-06T14:30:08.921Z,20.00
2023-05-06T14:32:37.390Z,20.10
2023-05-06T14:35:04.902Z,19.90
2023-05-06T14:37:31.648Z,19.90
2023-05-06T14:39:58.431Z,19.70
2023-05-06T14:42:25.770Z,19.70
2023-05-06T14:44:53.003Z,19.60
2023-05-06T14:47:19.797Z,19.50
2023-05-06T14:49:46.795Z,19.70
2023-05-06T14:52:13.521Z,19.70
2023-05-06T14:54:42.784Z,19.60
2023-05-06T14:57:10.704Z,19.70
2023-05-06T14:59:38.662Z,19.90
2023-05-06T15:02:08.851Z,20.00
2023-05-06T15:04:36.896Z,19.70
2023-05-06T15:07:04.081Z,19.60
2023-05-06T15:09:31.156Z,19.60
2023-05-06T15:11:58.187Z,19.70
2023-05-06T15:14:25.046Z,19.60
2023-05-06T15:16:54.404Z,19.60
2023-05-06T15:19:21.373Z,19.60
2023-05-06T15:21:48.540Z,19.80
2023-05-06T15:24:15.789Z,19.70
2023-05-06T15:26:43.225Z,19.60
2023-05-06T15:29:10.092Z,19.60
2023-05-06T15:31:38.965Z,19.70
2023-05-06T15:34:09.875Z,19.70
2023-05-06T15:36:37.499Z,19.50
2023-05-06T15:39:04.674Z,19.30
2023-05-06T15:41:33.507Z,19.20
2023-05-06T15:44:02.012Z,19.30
2023-05-06T15:46:31.029Z,19.20
2023-05-06T15:49:21.159Z,19.20
2023-05-06T15:51:45.658Z,19.20
2023-05-06T15:54:13.712Z,19.30
2023-05-06T15:56:41.755Z,19.30
2023-05-06T15:59:09.238Z,19.10
2023-05-06T16:02:18.898Z,19.00
2023-05-06T16:04:24.474Z,19.00
2023-05-06T16:06:51.978Z,19.00
2023-05-06T16:09:18.890Z,19.00
2023-05-06T16:11:45.731Z,19.10
2023-05-06T16:14:13.310Z,19.20
2023-05-06T16:16:40.551Z,19.10
2023-05-06T16:19:08.197Z,19.10
2023-05-06T16:21:35.413Z,19.10
2023-05-06T16:24:02.484Z,19.10
2023-05-06T16:26:29.675Z,19.00
2023-05-06T16:28:56.763Z,19.10
2023-05-06T16:31:23.754Z,19.10
2023-05-06T16:33:50.980Z,19.00
2023-05-06T16:36:18.082Z,19.10
2023-05-06T16:38:44.830Z,19.30
2023-05-06T16:41:11.665Z,19.30
2023-05-06T16:43:38.680Z,19.20
2023-05-06T16:46:06.231Z,19.10
2023-05-06T16:48:33.230Z,18.90
2023-05-06T16:51:00.415Z,18.70
2023-05-06T16:53:27.866Z,18.70
2023-05-06T16:55:55.445Z,18.60
2023-05-06T16:58:22.973Z,18.60
2023-05-06T17:00:52.625Z,18.60
2023-05-06T17:03:19.890Z,18.70
2023-05-06T17:05:47.115Z,18.60
2023-05-06T17:08:16.069Z,18.40
2023-05-06T17:10:43.552Z,18.30
2023-05-06T17:13:10.914Z,18.30
2023-05-06T17:15:37.894Z,18.30
2023-05-06T17:18:04.732Z,18.30
2023-05-06T17:20:33.625Z,18.20
2023-05-06T17:23:04.754Z,18.20
2023-05-06T17:25:31.502Z,18.20
2023-05-06T17:27:58.527Z,18.30
2023-05-06T17:30:25.366Z,18.20
2023-05-06T17:32:52.140Z,18.20
2023-05-06T17:35:20.491Z,18.10
2023-05-06T17:37:47.322Z,18.00
2023-05-06T17:40:15.196Z,17.90
2023-05-06T17:42:42.199Z,17.90
2023-05-06T17:45:10.112Z,17.80
2023-05-06T17:47:37.534Z,17.80
2023-05-06T17:50:05.423Z,17.80
2023-05-06T17:52:32.295Z,17.70
2023-05-06T17:55:15.035Z,17.70
2023-05-06T17:57:44.306Z,17.60
2023-05-06T18:00:11.629Z,17.60
2023-05-06T18:02:39.071Z,17.50
2023-05-06T18:05:06.705Z,17.50
2023-05-06T18:07:35.092Z,17.40
2023-05-06T18:10:02.018Z,17.40
2023-05-06T18:12:29.084Z,17.40
2023-05-06T18:14:58.768Z,17.30
2023-05-06T18:17:25.821Z,17.30
2023-05-06T18:19:53.165Z,17.20
2023-05-06T18:22:20.009Z,17.20
2023-05-06T18:24:46.780Z,17.10
2023-05-06T18:27:13.784Z,17.20
2023-05-06T18:29:41.354Z,17.10
2023-05-06T18:32:08.724Z,17.00
2023-05-06T18:34:36.373Z,17.00
2023-05-06T18:37:03.752Z,16.90
2023-05-06T18:39:30.673Z,16.90
2023-05-06T18:41:57.735Z,16.80
2023-05-06T18:44:24.604Z,16.80
2023-05-06T18:46:51.503Z,16.70
2023-05-06T18:49:18.504Z,16.70
2023-05-06T18:51:45.634Z,16.70
2023-05-06T18:54:14.336Z,16.60
2023-05-06T18:56:43.900Z,16.50
2023-05-06T18:59:11.645Z,16.50
2023-05-06T19:01:38.613Z,16.50
2023-05-06T19:04:06.603Z,16.50
2023-05-06T19:06:33.584Z,16.50
2023-05-06T19:09:01.266Z,16.40
2023-05-06T19:11:28.258Z,16.40
2023-05-06T19:13:55.095Z,16.30
2023-05-06T19:16:21.911Z,16.30
2023-05-06T19:18:48.967Z,16.30
2023-05-06T19:21:15.904Z,16.30
2023-05-06T19:23:42.999Z,16.20
2023-05-06T19:26:11.508Z,16.20
2023-05-06T19:28:39.854Z,16.20
2023-05-06T19:31:10.896Z,16.20
2023-05-06T19:33:39.319Z,16.10
2023-05-06T19:36:06.861Z,16.10
2023-05-06T19:38:34.394Z,16.10
2023-05-06T19:41:01.799Z,16.10
2023-05-06T19:43:28.768Z,16.00
2023-05-06T19:45:56.062Z,16.00
2023-05-06T19:48:24.057Z,16.00
2023-05-06T19:50:53.812Z,16.00
2023-05-06T19:53:22.816Z,15.90
2023-05-06T19:55:49.981Z,15.90
2023-05-06T19:58:17.310Z,15.80
2023-05-06T20:00:45.425Z,15.80
2023-05-06T20:03:12.922Z,15.80
2023-05-06T20:05:39.834Z,15.80
2023-05-06T20:08:10.806Z,15.80
2023-05-06T20:10:38.740Z,15.80
2023-05-06T20:13:06.578Z,15.80
2023-05-06T20:15:33.767Z,15.70
2023-05-06T20:18:01.026Z,15.80
2023-05-06T20:20:34.346Z,15.70
2023-05-06T20:23:02.514Z,15.70
2023-05-06T20:25:29.837Z,15.60
2023-05-06T20:27:57.670Z,15.60
2023-05-06T20:30:24.886Z,15.60
2023-05-06T20:32:52.354Z,15.50
2023-05-06T20:35:19.483Z,15.50
2023-05-06T20:37:47.127Z,15.50
2023-05-06T20:40:14.280Z,15.40
2023-05-06T20:42:41.280Z,15.40
2023-05-06T20:45:09.508Z,15.30
2023-05-06T20:47:36.678Z,15.30
2023-05-06T20:50:03.928Z,15.20
2023-05-06T20:52:30.758Z,15.20
2023-05-06T20:54:58.449Z,15.20
2023-05-06T20:57:25.456Z,15.20
2023-05-06T20:59:52.625Z,15.10
2023-05-06T21:02:19.724Z,15.10
2023-05-06T21:04:46.956Z,15.10
2023-05-06T21:07:13.807Z,15.10
2023-05-06T21:09:40.892Z,15.10
2023-05-06T21:12:07.745Z,15.00
2023-05-06T21:14:34.824Z,15.10
2023-05-06T21:17:01.977Z,15.10
2023-05-06T21:19:28.794Z,15.00
2023-05-06T21:21:56.915Z,15.00
2023-05-06T21:24:23.791Z,15.00
2023-05-06T21:26:51.439Z,15.00
2023-05-06T21:29:18.459Z,15.00
2023-05-06T21:31:45.631Z,15.00
2023-05-06T21:34:12.407Z,14.90
2023-05-06T21:36:39.483Z,14.90
2023-05-06T21:39:14.069Z,14.90
2023-05-06T21:41:41.230Z,14.80
2023-05-06T21:44:09.360Z,14.80
2023-05-06T21:46:37.822Z,14.80
2023-05-06T21:49:05.345Z,14.70
2023-05-06T21:51:35.961Z,14.70
2023-05-06T21:54:03.513Z,14.70
2023-05-06T21:56:30.602Z,14.60
2023-05-06T21:58:57.402Z,14.60
2023-05-06T22:01:26.272Z,14.60
2023-05-06T22:03:54.166Z,14.50
2023-05-06T22:06:21.956Z,14.50
2023-05-06T22:08:49.035Z,14.40
2023-05-06T22:11:16.615Z,14.40
2023-05-06T22:13:43.348Z,14.40
2023-05-06T22:16:10.214Z,14.30
2023-05-06T22:18:41.764Z,14.30
2023-05-06T22:21:09.756Z,14.30
2023-05-06T22:23:37.034Z,14.30
2023-05-06T22:26:03.906Z,14.30
2023-05-06T22:28:30.707Z,14.20
2023-05-06T22:30:57.669Z,14.20
2023-05-06T22:33:25.753Z,14.10
2023-05-06T22:35:52.562Z,14.00
2023-05-06T22:38:19.570Z,14.00
2023-05-06T22:40:46.350Z,13.80
2023-05-06T22:43:13.155Z,13.80
2023-05-06T22:45:40.105Z,13.80
2023-05-06T22:48:07.705Z,13.70
2023-05-06T22:50:34.535Z,13.70
2023-05-06T22:53:10.403Z,13.70
2023-05-06T22:55:41.590Z,13.60
2023-05-06T22:58:08.702Z,13.60
2023-05-06T23:00:35.617Z,13.60
2023-05-06T23:03:03.235Z,13.50
2023-05-06T23:05:30.237Z,13.50
2023-05-06T23:07:56.962Z,13.50
2023-05-06T23:10:23.839Z,13.40
2023-05-06T23:12:50.934Z,13.30
2023-05-06T23:15:17.745Z,13.30
2023-05-06T23:17:44.644Z,13.30
2023-05-06T23:20:13.002Z,13.20
2023-05-06T23:22:40.006Z,13.10
2023-05-06T23:25:09.259Z,13.10
2023-05-06T23:27:40.135Z,13.10
2023-05-06T23:30:11.005Z,13.00
2023-05-06T23:32:38.017Z,13.00
2023-05-06T23:35:07.551Z,13.00
2023-05-06T23:37:34.599Z,12.90
2023-05-06T23:40:03.520Z,12.90
2023-05-06T23:42:30.922Z,12.90
2023-05-06T23:45:00.036Z,12.90
2023-05-06T23:47:27.143Z,12.80
2023-05-06T23:49:54.141Z,12.70
2023-05-06T23:52:21.311Z,12.70
2023-05-06T23:54:48.316Z,12.70
2023-05-06T23:57:15.482Z,12.70
2023-05-06T23:59:42.953Z,12.70
